sensor_id;sensor_type;location;lat;lon;timestamp;P1;durP1;ratioP1;P2;durP2;ratioP2
36585;SDS011;22591;48.314;11.562;2023-03-15T00:00:42;4.95;;;1.90;;
36585;SDS011;22591;48.314;11.562;2023-03-15T00:03:08;1.30;;;1.30;;
36585;SDS011;22591;48.314;11.562;2023-03-15T00:05:34;3.13;;;1.40;;
36585;SDS011;22591;48.314;11.562;2023-03-15T00:08:00;1.65;;;1.55;;
36585;SDS011;22591;48.314;11.562;2023-03-15T00:10:26;3.38;;;1.50;;
36585;SDS011;22591;48.314;11.562;2023-03-15T00:12:52;2.42;;;1.85;;
36585;SDS011;22591;48.314;11.562;2023-03-15T00:15:20;1.23;;;1.20;;
36585;SDS011;22591;48.314;11.562;2023-03-15T00:17:45;2.63;;;1.75;;
36585;SDS011;22591;48.314;11.562;2023-03-15T00:20:11;6.90;;;2.40;;
36585;SDS011;22591;48.314;11.562;2023-03-15T00:22:39;4.95;;;2.28;;
36585;SDS011;22591;48.314;11.562;2023-03-15T00:25:05;4.32;;;2.75;;
36585;SDS011;22591;48.314;11.562;2023-03-15T00:27:31;4.10;;;3.00;;
36585;SDS011;22591;48.314;11.562;2023-03-15T00:29:56;3.15;;;2.38;;
36585;SDS011;22591;48.314;11.562;2023-03-15T00:32:22;3.60;;;2.65;;
36585;SDS011;22591;48.314;11.562;2023-03-15T00:34:47;3.25;;;2.60;;
36585;SDS011;22591;48.314;11.562;2023-03-15T00:37:16;6.10;;;2.63;;
36585;SDS011;22591;48.314;11.562;2023-03-15T00:39:44;2.55;;;2.35;;
36585;SDS011;22591;48.314;11.562;2023-03-15T00:42:10;4.25;;;2.13;;
36585;SDS011;22591;48.314;11.562;2023-03-15T00:44:39;3.13;;;2.38;;
36585;SDS011;22591;48.314;11.562;2023-03-15T00:47:09;2.58;;;2.35;;
36585;SDS011;22591;48.314;11.562;2023-03-15T00:49:35;3.45;;;2.50;;
36585;SDS011;22591;48.314;11.562;2023-03-15T00:52:01;4.18;;;2.97;;
36585;SDS011;22591;48.314;11.562;2023-03-15T00:54:26;6.07;;;3.13;;
36585;SDS011;22591;48.314;11.562;2023-03-15T00:56:52;3.83;;;3.03;;
36585;SDS011;22591;48.314;11.562;2023-03-15T00:59:17;4.32;;;2.72;;
36585;SDS011;22591;48.314;11.562;2023-03-15T01:01:43;3.35;;;3.00;;
36585;SDS011;22591;48.314;11.562;2023-03-15T01:04:10;4.05;;;3.00;;
36585;SDS011;22591;48.314;11.562;2023-03-15T01:06:38;3.47;;;3.20;;
36585;SDS011;22591;48.314;11.562;2023-03-15T01:09:06;2.95;;;2.75;;
36585;SDS011;22591;48.314;11.562;2023-03-15T01:11:32;3.22;;;3.03;;
36585;SDS011;22591;48.314;11.562;2023-03-15T01:13:58;5.07;;;3.25;;
36585;SDS011;22591;48.314;11.562;2023-03-15T01:16:25;2.85;;;2.65;;
36585;SDS011;22591;48.314;11.562;2023-03-15T01:18:51;3.92;;;3.05;;
36585;SDS011;22591;48.314;11.562;2023-03-15T01:21:18;3.92;;;3.63;;
36585;SDS011;22591;48.314;11.562;2023-03-15T01:23:44;3.92;;;3.55;;
36585;SDS011;22591;48.314;11.562;2023-03-15T01:26:11;3.70;;;3.47;;
36585;SDS011;22591;48.314;11.562;2023-03-15T01:28:38;3.33;;;3.00;;
36585;SDS011;22591;48.314;11.562;2023-03-15T01:31:04;3.38;;;3.17;;
36585;SDS011;22591;48.314;11.562;2023-03-15T01:33:30;3.17;;;2.97;;
36585;SDS011;22591;48.314;11.562;2023-03-15T01:36:03;3.47;;;3.17;;
36585;SDS011;22591;48.314;11.562;2023-03-15T01:38:31;3.63;;;3.17;;
36585;SDS011;22591;48.314;11.562;2023-03-15T01:40:57;3.20;;;3.00;;
36585;SDS011;22591;48.314;11.562;2023-03-15T01:43:23;3.22;;;2.97;;
36585;SDS011;22591;48.314;11.562;2023-03-15T01:45:56;3.65;;;3.45;;
36585;SDS011;22591;48.314;11.562;2023-03-15T01:48:32;5.20;;;3.72;;
36585;SDS011;22591;48.314;11.562;2023-03-15T01:50:59;4.28;;;4.05;;
36585;SDS011;22591;48.314;11.562;2023-03-15T01:53:30;4.32;;;3.92;;
36585;SDS011;22591;48.314;11.562;2023-03-15T01:55:57;4.05;;;3.78;;
36585;SDS011;22591;48.314;11.562;2023-03-15T01:58:24;4.22;;;3.92;;
36585;SDS011;22591;48.314;11.562;2023-03-15T02:00:51;6.60;;;3.88;;
36585;SDS011;22591;48.314;11.562;2023-03-15T02:03:17;4.32;;;3.92;;
36585;SDS011;22591;48.314;11.562;2023-03-15T02:05:51;4.10;;;3.80;;
36585;SDS011;22591;48.314;11.562;2023-03-15T02:08:21;4.38;;;3.97;;
36585;SDS011;22591;48.314;11.562;2023-03-15T02:10:53;5.05;;;4.65;;
36585;SDS011;22591;48.314;11.562;2023-03-15T02:13:23;5.10;;;4.70;;
36585;SDS011;22591;48.314;11.562;2023-03-15T02:15:50;4.80;;;4.50;;
36585;SDS011;22591;48.314;11.562;2023-03-15T02:18:18;4.53;;;4.22;;
36585;SDS011;22591;48.314;11.562;2023-03-15T02:20:47;4.63;;;4.22;;
36585;SDS011;22591;48.314;11.562;2023-03-15T02:23:44;4.43;;;4.03;;
36585;SDS011;22591;48.314;11.562;2023-03-15T02:26:25;4.15;;;3.95;;
36585;SDS011;22591;48.314;11.562;2023-03-15T02:28:58;4.40;;;4.13;;
36585;SDS011;22591;48.314;11.562;2023-03-15T02:31:25;4.88;;;4.43;;
36585;SDS011;22591;48.314;11.562;2023-03-15T02:33:52;5.63;;;5.00;;
36585;SDS011;22591;48.314;11.562;2023-03-15T02:36:22;5.22;;;4.80;;
36585;SDS011;22591;48.314;11.562;2023-03-15T02:38:53;5.38;;;4.90;;
36585;SDS011;22591;48.314;11.562;2023-03-15T02:44:06;5.00;;;4.65;;
36585;SDS011;22591;48.314;11.562;2023-03-15T02:46:35;5.75;;;5.25;;
36585;SDS011;22591;48.314;11.562;2023-03-15T02:49:01;5.32;;;4.82;;
36585;SDS011;22591;48.314;11.562;2023-03-15T02:51:29;7.70;;;4.78;;
36585;SDS011;22591;48.314;11.562;2023-03-15T02:53:57;3.83;;;3.35;;
36585;SDS011;22591;48.314;11.562;2023-03-15T02:56:22;3.20;;;2.60;;
36585;SDS011;22591;48.314;11.562;2023-03-15T02:58:48;5.13;;;4.15;;
36585;SDS011;22591;48.314;11.562;2023-03-15T03:01:15;4.43;;;3.38;;
36585;SDS011;22591;48.314;11.562;2023-03-15T03:03:42;6.38;;;4.88;;
36585;SDS011;22591;48.314;11.562;2023-03-15T03:06:10;6.80;;;3.83;;
36585;SDS011;22591;48.314;11.562;2023-03-15T03:08:37;6.68;;;3.92;;
36585;SDS011;22591;48.314;11.562;2023-03-15T03:11:03;4.40;;;3.90;;
36585;SDS011;22591;48.314;11.562;2023-03-15T03:13:29;7.88;;;4.72;;
36585;SDS011;22591;48.314;11.562;2023-03-15T03:15:55;11.93;;;4.63;;
36585;SDS011;22591;48.314;11.562;2023-03-15T03:18:23;6.72;;;4.82;;
36585;SDS011;22591;48.314;11.562;2023-03-15T03:20:50;7.00;;;4.60;;
36585;SDS011;22591;48.314;11.562;2023-03-15T03:23:15;10.93;;;4.38;;
36585;SDS011;22591;48.314;11.562;2023-03-15T03:25:41;5.25;;;3.67;;
36585;SDS011;22591;48.314;11.562;2023-03-15T03:28:09;9.10;;;4.47;;
36585;SDS011;22591;48.314;11.562;2023-03-15T03:30:35;8.57;;;3.97;;
36585;SDS011;22591;48.314;11.562;2023-03-15T03:33:00;7.95;;;4.47;;
36585;SDS011;22591;48.314;11.562;2023-03-15T03:35:26;4.38;;;3.95;;
36585;SDS011;22591;48.314;11.562;2023-03-15T03:37:51;4.38;;;4.00;;
36585;SDS011;22591;48.314;11.562;2023-03-15T03:40:17;4.13;;;3.72;;
36585;SDS011;22591;48.314;11.562;2023-03-15T03:42:43;5.35;;;4.35;;
36585;SDS011;22591;48.314;11.562;2023-03-15T03:45:09;6.13;;;4.03;;
36585;SDS011;22591;48.314;11.562;2023-03-15T03:47:35;9.82;;;4.28;;
36585;SDS011;22591;48.314;11.562;2023-03-15T03:50:00;6.82;;;4.50;;
36585;SDS011;22591;48.314;11.562;2023-03-15T03:52:26;4.38;;;4.05;;
36585;SDS011;22591;48.314;11.562;2023-03-15T03:54:51;6.45;;;3.88;;
36585;SDS011;22591;48.314;11.562;2023-03-15T03:57:17;7.93;;;3.75;;
36585;SDS011;22591;48.314;11.562;2023-03-15T03:59:42;7.28;;;3.75;;
36585;SDS011;22591;48.314;11.562;2023-03-15T04:02:08;3.20;;;3.00;;
36585;SDS011;22591;48.314;11.562;2023-03-15T04:04:33;3.03;;;2.65;;
36585;SDS011;22591;48.314;11.562;2023-03-15T04:06:59;5.38;;;3.20;;
36585;SDS011;22591;48.314;11.562;2023-03-15T04:09:25;5.25;;;2.83;;
36585;SDS011;22591;48.314;11.562;2023-03-15T04:11:50;3.47;;;2.95;;
36585;SDS011;22591;48.314;11.562;2023-03-15T04:14:16;3.42;;;3.20;;
36585;SDS011;22591;48.314;11.562;2023-03-15T04:16:41;8.05;;;3.00;;
36585;SDS011;22591;48.314;11.562;2023-03-15T04:19:07;4.38;;;2.70;;
36585;SDS011;22591;48.314;11.562;2023-03-15T04:21:33;4.93;;;3.40;;
36585;SDS011;22591;48.314;11.562;2023-03-15T04:23:59;4.68;;;3.00;;
36585;SDS011;22591;48.314;11.562;2023-03-15T04:26:26;5.05;;;3.20;;
36585;SDS011;22591;48.314;11.562;2023-03-15T04:28:55;2.90;;;2.67;;
36585;SDS011;22591;48.314;11.562;2023-03-15T04:31:22;5.07;;;3.40;;
36585;SDS011;22591;48.314;11.562;2023-03-15T04:33:54;4.70;;;3.65;;
36585;SDS011;22591;48.314;11.562;2023-03-15T04:36:20;5.07;;;2.75;;
36585;SDS011;22591;48.314;11.562;2023-03-15T04:38:47;3.13;;;2.80;;
36585;SDS011;22591;48.314;11.562;2023-03-15T04:41:13;4.70;;;2.63;;
36585;SDS011;22591;48.314;11.562;2023-03-15T04:43:40;4.25;;;2.70;;
36585;SDS011;22591;48.314;11.562;2023-03-15T04:46:06;9.45;;;2.95;;
36585;SDS011;22591;48.314;11.562;2023-03-15T04:48:32;4.90;;;3.72;;
36585;SDS011;22591;48.314;11.562;2023-03-15T04:50:58;4.60;;;3.20;;
36585;SDS011;22591;48.314;11.562;2023-03-15T04:53:24;4.45;;;3.03;;
36585;SDS011;22591;48.314;11.562;2023-03-15T04:55:50;5.18;;;3.83;;
36585;SDS011;22591;48.314;11.562;2023-03-15T04:58:16;8.18;;;4.00;;
36585;SDS011;22591;48.314;11.562;2023-03-15T05:00:43;4.32;;;3.25;;
36585;SDS011;22591;48.314;11.562;2023-03-15T05:03:09;5.53;;;3.70;;
36585;SDS011;22591;48.314;11.562;2023-03-15T05:05:34;5.03;;;4.07;;
36585;SDS011;22591;48.314;11.562;2023-03-15T05:08:00;4.90;;;3.88;;
36585;SDS011;22591;48.314;11.562;2023-03-15T05:10:25;7.15;;;3.70;;
36585;SDS011;22591;48.314;11.562;2023-03-15T05:12:53;5.63;;;4.35;;
36585;SDS011;22591;48.314;11.562;2023-03-15T05:15:19;7.55;;;4.10;;
36585;SDS011;22591;48.314;11.562;2023-03-15T05:17:45;6.88;;;5.03;;
36585;SDS011;22591;48.314;11.562;2023-03-15T05:20:11;7.40;;;4.20;;
36585;SDS011;22591;48.314;11.562;2023-03-15T05:22:38;6.68;;;4.15;;
36585;SDS011;22591;48.314;11.562;2023-03-15T05:25:05;5.47;;;4.15;;
36585;SDS011;22591;48.314;11.562;2023-03-15T05:27:31;5.07;;;4.18;;
36585;SDS011;22591;48.314;11.562;2023-03-15T05:29:58;5.25;;;4.55;;
36585;SDS011;22591;48.314;11.562;2023-03-15T05:32:28;7.63;;;5.00;;
36585;SDS011;22591;48.314;11.562;2023-03-15T05:34:58;8.75;;;4.75;;
36585;SDS011;22591;48.314;11.562;2023-03-15T05:37:25;6.22;;;5.38;;
36585;SDS011;22591;48.314;11.562;2023-03-15T05:39:51;4.97;;;4.45;;
36585;SDS011;22591;48.314;11.562;2023-03-15T05:42:16;8.57;;;4.63;;
36585;SDS011;22591;48.314;11.562;2023-03-15T05:44:49;5.68;;;4.70;;
36585;SDS011;22591;48.314;11.562;2023-03-15T05:47:14;12.52;;;5.63;;
36585;SDS011;22591;48.314;11.562;2023-03-15T05:49:40;7.80;;;5.85;;
36585;SDS011;22591;48.314;11.562;2023-03-15T05:52:06;6.53;;;5.30;;
36585;SDS011;22591;48.314;11.562;2023-03-15T05:54:31;7.38;;;5.82;;
36585;SDS011;22591;48.314;11.562;2023-03-15T05:56:57;10.27;;;5.90;;
36585;SDS011;22591;48.314;11.562;2023-03-15T05:59:22;5.47;;;4.75;;
36585;SDS011;22591;48.314;11.562;2023-03-15T06:01:48;9.38;;;5.53;;
36585;SDS011;22591;48.314;11.562;2023-03-15T06:04:13;8.65;;;5.38;;
36585;SDS011;22591;48.314;11.562;2023-03-15T06:06:39;8.73;;;6.18;;
36585;SDS011;22591;48.314;11.562;2023-03-15T06:09:04;10.10;;;5.65;;
36585;SDS011;22591;48.314;11.562;2023-03-15T06:11:30;9.77;;;5.72;;
36585;SDS011;22591;48.314;11.562;2023-03-15T06:13:55;10.18;;;6.78;;
36585;SDS011;22591;48.314;11.562;2023-03-15T06:16:21;6.50;;;5.43;;
36585;SDS011;22591;48.314;11.562;2023-03-15T06:18:46;10.60;;;5.72;;
36585;SDS011;22591;48.314;11.562;2023-03-15T06:21:12;6.63;;;5.13;;
36585;SDS011;22591;48.314;11.562;2023-03-15T06:23:37;7.13;;;6.03;;
36585;SDS011;22591;48.314;11.562;2023-03-15T06:26:03;13.82;;;6.85;;
36585;SDS011;22591;48.314;11.562;2023-03-15T06:28:29;7.15;;;5.63;;
36585;SDS011;22591;48.314;11.562;2023-03-15T06:30:54;7.88;;;6.22;;
36585;SDS011;22591;48.314;11.562;2023-03-15T06:33:20;8.82;;;6.18;;
36585;SDS011;22591;48.314;11.562;2023-03-15T06:35:45;10.93;;;6.82;;
36585;SDS011;22591;48.314;11.562;2023-03-15T06:38:11;13.57;;;6.38;;
36585;SDS011;22591;48.314;11.562;2023-03-15T06:40:37;9.00;;;6.28;;
36585;SDS011;22591;48.314;11.562;2023-03-15T06:43:03;8.15;;;6.30;;
36585;SDS011;22591;48.314;11.562;2023-03-15T06:45:30;10.65;;;6.32;;
36585;SDS011;22591;48.314;11.562;2023-03-15T06:47:56;7.35;;;5.30;;
36585;SDS011;22591;48.314;11.562;2023-03-15T06:50:22;7.18;;;5.50;;
36585;SDS011;22591;48.314;11.562;2023-03-15T06:52:48;6.85;;;5.95;;
36585;SDS011;22591;48.314;11.562;2023-03-15T06:55:13;9.13;;;6.35;;
36585;SDS011;22591;48.314;11.562;2023-03-15T06:57:42;14.93;;;6.63;;
36585;SDS011;22591;48.314;11.562;2023-03-15T07:00:08;8.10;;;5.72;;
36585;SDS011;22591;48.314;11.562;2023-03-15T07:02:35;8.63;;;6.50;;
36585;SDS011;22591;48.314;11.562;2023-03-15T07:05:02;11.60;;;7.43;;
36585;SDS011;22591;48.314;11.562;2023-03-15T07:07:28;9.95;;;7.55;;
36585;SDS011;22591;48.314;11.562;2023-03-15T07:09:53;7.25;;;6.55;;
36585;SDS011;22591;48.314;11.562;2023-03-15T07:12:19;7.85;;;6.07;;
36585;SDS011;22591;48.314;11.562;2023-03-15T07:14:45;11.55;;;7.90;;
36585;SDS011;22591;48.314;11.562;2023-03-15T07:17:10;11.13;;;6.57;;
36585;SDS011;22591;48.314;11.562;2023-03-15T07:19:36;8.93;;;7.15;;
36585;SDS011;22591;48.314;11.562;2023-03-15T07:22:02;10.25;;;7.38;;
36585;SDS011;22591;48.314;11.562;2023-03-15T07:24:27;16.65;;;7.85;;
36585;SDS011;22591;48.314;11.562;2023-03-15T07:26:53;8.80;;;7.30;;
36585;SDS011;22591;48.314;11.562;2023-03-15T07:29:20;8.05;;;7.22;;
36585;SDS011;22591;48.314;11.562;2023-03-15T07:31:47;16.30;;;8.52;;
36585;SDS011;22591;48.314;11.562;2023-03-15T07:34:13;9.20;;;7.72;;
36585;SDS011;22591;48.314;11.562;2023-03-15T07:36:38;18.02;;;9.30;;
36585;SDS011;22591;48.314;11.562;2023-03-15T07:39:04;14.38;;;9.60;;
36585;SDS011;22591;48.314;11.562;2023-03-15T07:41:29;14.48;;;9.50;;
36585;SDS011;22591;48.314;11.562;2023-03-15T07:43:55;12.93;;;9.52;;
36585;SDS011;22591;48.314;11.562;2023-03-15T07:46:21;17.60;;;8.95;;
36585;SDS011;22591;48.314;11.562;2023-03-15T07:48:46;10.80;;;7.45;;
36585;SDS011;22591;48.314;11.562;2023-03-15T07:51:12;11.30;;;8.27;;
36585;SDS011;22591;48.314;11.562;2023-03-15T07:53:37;11.20;;;8.07;;
36585;SDS011;22591;48.314;11.562;2023-03-15T07:56:03;12.50;;;6.28;;
36585;SDS011;22591;48.314;11.562;2023-03-15T07:58:29;7.03;;;6.43;;
36585;SDS011;22591;48.314;11.562;2023-03-15T08:00:55;8.85;;;5.75;;
36585;SDS011;22591;48.314;11.562;2023-03-15T08:03:22;11.70;;;7.63;;
36585;SDS011;22591;48.314;11.562;2023-03-15T08:05:48;12.48;;;7.28;;
36585;SDS011;22591;48.314;11.562;2023-03-15T08:08:14;10.77;;;7.30;;
36585;SDS011;22591;48.314;11.562;2023-03-15T08:10:40;10.60;;;7.20;;
36585;SDS011;22591;48.314;11.562;2023-03-15T08:13:07;10.20;;;8.50;;
36585;SDS011;22591;48.314;11.562;2023-03-15T08:15:32;10.98;;;7.80;;
36585;SDS011;22591;48.314;11.562;2023-03-15T08:17:58;13.48;;;7.43;;
36585;SDS011;22591;48.314;11.562;2023-03-15T08:20:24;7.97;;;6.93;;
36585;SDS011;22591;48.314;11.562;2023-03-15T08:22:50;12.88;;;8.13;;
36585;SDS011;22591;48.314;11.562;2023-03-15T08:25:19;10.98;;;7.50;;
36585;SDS011;22591;48.314;11.562;2023-03-15T08:27:46;10.07;;;7.65;;
36585;SDS011;22591;48.314;11.562;2023-03-15T08:30:12;14.65;;;7.63;;
36585;SDS011;22591;48.314;11.562;2023-03-15T08:32:38;11.45;;;7.32;;
36585;SDS011;22591;48.314;11.562;2023-03-15T08:35:06;13.88;;;7.90;;
36585;SDS011;22591;48.314;11.562;2023-03-15T08:37:32;12.15;;;7.97;;
36585;SDS011;22591;48.314;11.562;2023-03-15T08:39:57;11.85;;;7.93;;
36585;SDS011;22591;48.314;11.562;2023-03-15T08:42:31;15.18;;;8.85;;
36585;SDS011;22591;48.314;11.562;2023-03-15T08:44:57;11.00;;;7.55;;
36585;SDS011;22591;48.314;11.562;2023-03-15T08:47:23;9.45;;;6.85;;
36585;SDS011;22591;48.314;11.562;2023-03-15T08:49:49;12.93;;;7.18;;
36585;SDS011;22591;48.314;11.562;2023-03-15T08:52:17;10.70;;;6.57;;
36585;SDS011;22591;48.314;11.562;2023-03-15T08:54:46;8.50;;;6.25;;
36585;SDS011;22591;48.314;11.562;2023-03-15T08:57:12;8.55;;;6.97;;
36585;SDS011;22591;48.314;11.562;2023-03-15T08:59:38;9.82;;;7.30;;
36585;SDS011;22591;48.314;11.562;2023-03-15T09:02:04;9.25;;;6.13;;
36585;SDS011;22591;48.314;11.562;2023-03-15T09:04:30;9.68;;;5.05;;
36585;SDS011;22591;48.314;11.562;2023-03-15T09:06:57;10.45;;;5.63;;
36585;SDS011;22591;48.314;11.562;2023-03-15T09:09:23;5.72;;;4.07;;
36585;SDS011;22591;48.314;11.562;2023-03-15T09:11:48;5.53;;;4.35;;
36585;SDS011;22591;48.314;11.562;2023-03-15T09:14:14;7.40;;;4.70;;
36585;SDS011;22591;48.314;11.562;2023-03-15T09:16:40;6.93;;;4.30;;
36585;SDS011;22591;48.314;11.562;2023-03-15T09:19:05;12.07;;;4.35;;
36585;SDS011;22591;48.314;11.562;2023-03-15T09:21:31;10.52;;;5.05;;
36585;SDS011;22591;48.314;11.562;2023-03-15T09:23:56;7.78;;;4.53;;
36585;SDS011;22591;48.314;11.562;2023-03-15T09:26:22;6.03;;;4.60;;
36585;SDS011;22591;48.314;11.562;2023-03-15T09:28:48;8.15;;;4.10;;
36585;SDS011;22591;48.314;11.562;2023-03-15T09:31:13;9.32;;;4.45;;
36585;SDS011;22591;48.314;11.562;2023-03-15T09:33:39;8.40;;;4.05;;
36585;SDS011;22591;48.314;11.562;2023-03-15T09:36:05;9.20;;;4.68;;
36585;SDS011;22591;48.314;11.562;2023-03-15T09:38:31;5.47;;;3.90;;
36585;SDS011;22591;48.314;11.562;2023-03-15T09:40:59;8.60;;;3.60;;
36585;SDS011;22591;48.314;11.562;2023-03-15T09:43:33;5.28;;;4.38;;
36585;SDS011;22591;48.314;11.562;2023-03-15T09:46:14;4.53;;;3.97;;
36585;SDS011;22591;48.314;11.562;2023-03-15T09:49:03;9.52;;;3.80;;
36585;SDS011;22591;48.314;11.562;2023-03-15T09:51:42;9.13;;;3.95;;
36585;SDS011;22591;48.314;11.562;2023-03-15T09:54:15;5.63;;;3.88;;
36585;SDS011;22591;48.314;11.562;2023-03-15T09:59:32;8.93;;;3.20;;
36585;SDS011;22591;48.314;11.562;2023-03-15T10:04:29;7.05;;;4.00;;
36585;SDS011;22591;48.314;11.562;2023-03-15T10:07:01;11.30;;;3.35;;
36585;SDS011;22591;48.314;11.562;2023-03-15T10:09:29;6.47;;;2.65;;
36585;SDS011;22591;48.314;11.562;2023-03-15T10:12:03;4.93;;;2.45;;
36585;SDS011;22591;48.314;11.562;2023-03-15T10:14:35;7.88;;;2.75;;
36585;SDS011;22591;48.314;11.562;2023-03-15T10:20:10;5.05;;;2.60;;
36585;SDS011;22591;48.314;11.562;2023-03-15T10:22:59;4.03;;;2.13;;
36585;SDS011;22591;48.314;11.562;2023-03-15T10:25:34;10.68;;;2.67;;
36585;SDS011;22591;48.314;11.562;2023-03-15T10:28:08;4.63;;;2.70;;
36585;SDS011;22591;48.314;11.562;2023-03-15T10:30:47;3.42;;;2.50;;
36585;SDS011;22591;48.314;11.562;2023-03-15T10:33:21;4.67;;;3.23;;
36585;SDS011;22591;48.314;11.562;2023-03-15T10:35:58;4.05;;;3.03;;
36585;SDS011;22591;48.314;11.562;2023-03-15T10:38:25;3.22;;;2.65;;
36585;SDS011;22591;48.314;11.562;2023-03-15T10:40:53;8.65;;;2.63;;
36585;SDS011;22591;48.314;11.562;2023-03-15T10:48:36;5.95;;;2.97;;
36585;SDS011;22591;48.314;11.562;2023-03-15T10:51:13;8.18;;;2.50;;
36585;SDS011;22591;48.314;11.562;2023-03-15T10:53:58;5.90;;;2.80;;
36585;SDS011;22591;48.314;11.562;2023-03-15T10:56:30;6.45;;;2.50;;
36585;SDS011;22591;48.314;11.562;2023-03-15T10:58:59;5.47;;;2.13;;
36585;SDS011;22591;48.314;11.562;2023-03-15T11:01:29;7.72;;;2.63;;
36585;SDS011;22591;48.314;11.562;2023-03-15T11:06:36;3.17;;;2.88;;
36585;SDS011;22591;48.314;11.562;2023-03-15T11:09:12;3.13;;;2.00;;
36585;SDS011;22591;48.314;11.562;2023-03-15T11:11:53;7.05;;;2.08;;
36585;SDS011;22591;48.314;11.562;2023-03-15T11:14:24;4.88;;;2.40;;
36585;SDS011;22591;48.314;11.562;2023-03-15T11:16:53;6.22;;;2.30;;
36585;SDS011;22591;48.314;11.562;2023-03-15T11:19:22;3.47;;;2.10;;
36585;SDS011;22591;48.314;11.562;2023-03-15T11:21:51;4.05;;;2.00;;
36585;SDS011;22591;48.314;11.562;2023-03-15T11:24:29;5.55;;;1.75;;
36585;SDS011;22591;48.314;11.562;2023-03-15T11:27:02;3.90;;;1.60;;
36585;SDS011;22591;48.314;11.562;2023-03-15T11:29:36;1.75;;;1.50;;
36585;SDS011;22591;48.314;11.562;2023-03-15T11:32:17;4.88;;;1.52;;
36585;SDS011;22591;48.314;11.562;2023-03-15T11:37:47;2.40;;;1.67;;
36585;SDS011;22591;48.314;11.562;2023-03-15T11:40:22;3.47;;;2.05;;
36585;SDS011;22591;48.314;11.562;2023-03-15T11:42:57;2.08;;;1.90;;
36585;SDS011;22591;48.314;11.562;2023-03-15T11:47:56;2.75;;;1.90;;
36585;SDS011;22591;48.314;11.562;2023-03-15T11:50:26;4.85;;;1.92;;
36585;SDS011;22591;48.314;11.562;2023-03-15T11:52:51;2.90;;;1.83;;
36585;SDS011;22591;48.314;11.562;2023-03-15T11:55:24;2.72;;;1.65;;
36585;SDS011;22591;48.314;11.562;2023-03-15T11:57:52;3.20;;;1.60;;
36585;SDS011;22591;48.314;11.562;2023-03-15T12:00:20;4.07;;;1.50;;
36585;SDS011;22591;48.314;11.562;2023-03-15T12:02:56;1.55;;;1.08;;
36585;SDS011;22591;48.314;11.562;2023-03-15T12:05:43;1.90;;;1.33;;
36585;SDS011;22591;48.314;11.562;2023-03-15T12:08:16;1.38;;;1.27;;
36585;SDS011;22591;48.314;11.562;2023-03-15T12:10:49;2.92;;;1.55;;
36585;SDS011;22591;48.314;11.562;2023-03-15T12:13:22;1.58;;;1.45;;
36585;SDS011;22591;48.314;11.562;2023-03-15T12:15:51;3.80;;;1.33;;
36585;SDS011;22591;48.314;11.562;2023-03-15T12:18:17;1.50;;;1.40;;
36585;SDS011;22591;48.314;11.562;2023-03-15T12:21:10;2.92;;;1.70;;
36585;SDS011;22591;48.314;11.562;2023-03-15T12:23:40;2.30;;;1.70;;
36585;SDS011;22591;48.314;11.562;2023-03-15T12:26:09;2.45;;;1.25;;
36585;SDS011;22591;48.314;11.562;2023-03-15T12:28:48;3.17;;;1.50;;
36585;SDS011;22591;48.314;11.562;2023-03-15T12:31:14;2.67;;;1.80;;
36585;SDS011;22591;48.314;11.562;2023-03-15T12:33:44;2.83;;;1.52;;
36585;SDS011;22591;48.314;11.562;2023-03-15T12:46:59;3.67;;;1.65;;
36585;SDS011;22591;48.314;11.562;2023-03-15T12:51:55;1.63;;;1.52;;
36585;SDS011;22591;48.314;11.562;2023-03-15T12:54:23;3.45;;;1.42;;
36585;SDS011;22591;48.314;11.562;2023-03-15T12:59:24;5.38;;;1.40;;
36585;SDS011;22591;48.314;11.562;2023-03-15T13:02:28;1.50;;;1.20;;
36585;SDS011;22591;48.314;11.562;2023-03-15T13:04:59;2.72;;;1.08;;
36585;SDS011;22591;48.314;11.562;2023-03-15T13:07:42;3.15;;;1.42;;
36585;SDS011;22591;48.314;11.562;2023-03-15T13:10:37;3.35;;;1.63;;
36585;SDS011;22591;48.314;11.562;2023-03-15T13:16:15;1.52;;;1.38;;
36585;SDS011;22591;48.314;11.562;2023-03-15T13:21:33;7.22;;;1.80;;
36585;SDS011;22591;48.314;11.562;2023-03-15T13:24:00;1.10;;;1.00;;
36585;SDS011;22591;48.314;11.562;2023-03-15T13:29:21;2.55;;;1.05;;
36585;SDS011;22591;48.314;11.562;2023-03-15T13:34:43;2.05;;;1.60;;
36585;SDS011;22591;48.314;11.562;2023-03-15T13:37:13;1.38;;;1.27;;
36585;SDS011;22591;48.314;11.562;2023-03-15T13:39:51;2.33;;;1.70;;
36585;SDS011;22591;48.314;11.562;2023-03-15T13:42:22;2.35;;;1.75;;
36585;SDS011;22591;48.314;11.562;2023-03-15T13:47:33;3.58;;;1.90;;
36585;SDS011;22591;48.314;11.562;2023-03-15T13:50:01;1.10;;;1.00;;
36585;SDS011;22591;48.314;11.562;2023-03-15T13:52:28;1.95;;;1.75;;
36585;SDS011;22591;48.314;11.562;2023-03-15T13:54:54;3.58;;;1.52;;
36585;SDS011;22591;48.314;11.562;2023-03-15T13:57:20;2.35;;;1.20;;
36585;SDS011;22591;48.314;11.562;2023-03-15T14:02:50;2.25;;;1.70;;
36585;SDS011;22591;48.314;11.562;2023-03-15T14:05:29;1.40;;;1.10;;
36585;SDS011;22591;48.314;11.562;2023-03-15T14:10:33;1.85;;;1.13;;
36585;SDS011;22591;48.314;11.562;2023-03-15T14:15:49;1.92;;;1.02;;
36585;SDS011;22591;48.314;11.562;2023-03-15T14:18:23;1.08;;;1.00;;
36585;SDS011;22591;48.314;11.562;2023-03-15T14:23:42;3.67;;;1.60;;
36585;SDS011;22591;48.314;11.562;2023-03-15T14:26:16;4.35;;;1.13;;
36585;SDS011;22591;48.314;11.562;2023-03-15T14:28:50;3.28;;;1.58;;
36585;SDS011;22591;48.314;11.562;2023-03-15T14:31:25;3.45;;;1.30;;
36585;SDS011;22591;48.314;11.562;2023-03-15T14:33:54;1.20;;;1.08;;
36585;SDS011;22591;48.314;11.562;2023-03-15T14:36:32;1.63;;;1.52;;
36585;SDS011;22591;48.314;11.562;2023-03-15T14:39:13;1.45;;;1.10;;
36585;SDS011;22591;48.314;11.562;2023-03-15T14:41:42;1.67;;;1.30;;
36585;SDS011;22591;48.314;11.562;2023-03-15T14:44:09;1.85;;;1.40;;
36585;SDS011;22591;48.314;11.562;2023-03-15T14:46:34;4.65;;;2.67;;
36585;SDS011;22591;48.314;11.562;2023-03-15T14:49:00;1.77;;;1.40;;
36585;SDS011;22591;48.314;11.562;2023-03-15T14:51:26;1.20;;;1.10;;
36585;SDS011;22591;48.314;11.562;2023-03-15T14:53:53;1.80;;;1.70;;
36585;SDS011;22591;48.314;11.562;2023-03-15T14:56:21;3.00;;;1.85;;
36585;SDS011;22591;48.314;11.562;2023-03-15T14:58:48;3.78;;;1.92;;
36585;SDS011;22591;48.314;11.562;2023-03-15T15:01:15;2.83;;;1.73;;
36585;SDS011;22591;48.314;11.562;2023-03-15T15:03:56;1.75;;;1.63;;
36585;SDS011;22591;48.314;11.562;2023-03-15T15:06:26;1.27;;;1.13;;
36585;SDS011;22591;48.314;11.562;2023-03-15T15:08:54;5.93;;;1.63;;
36585;SDS011;22591;48.314;11.562;2023-03-15T15:11:22;2.67;;;1.20;;
36585;SDS011;22591;48.314;11.562;2023-03-15T15:13:47;2.50;;;1.50;;
36585;SDS011;22591;48.314;11.562;2023-03-15T15:16:13;1.92;;;1.50;;
36585;SDS011;22591;48.314;11.562;2023-03-15T15:18:38;2.22;;;1.23;;
36585;SDS011;22591;48.314;11.562;2023-03-15T15:21:21;2.92;;;1.67;;
36585;SDS011;22591;48.314;11.562;2023-03-15T15:23:50;2.22;;;1.50;;
36585;SDS011;22591;48.314;11.562;2023-03-15T15:26:17;2.22;;;1.33;;
36585;SDS011;22591;48.314;11.562;2023-03-15T15:28:44;5.93;;;1.60;;
36585;SDS011;22591;48.314;11.562;2023-03-15T15:31:12;3.63;;;1.60;;
36585;SDS011;22591;48.314;11.562;2023-03-15T15:33:40;3.30;;;1.65;;
36585;SDS011;22591;48.314;11.562;2023-03-15T15:36:09;1.92;;;1.50;;
36585;SDS011;22591;48.314;11.562;2023-03-15T15:38:46;2.10;;;1.90;;
36585;SDS011;22591;48.314;11.562;2023-03-15T15:41:13;2.30;;;1.60;;
36585;SDS011;22591;48.314;11.562;2023-03-15T15:43:43;4.20;;;1.83;;
36585;SDS011;22591;48.314;11.562;2023-03-15T15:46:09;3.58;;;1.90;;